sensor_id;sensor_type;location;lat;lon;timestamp;temperature;humidity
4602;DHT22;2313;48.552;9.370;2023-02-01T00:00:19;3.50;99.90
4602;DHT22;2313;48.552;9.370;2023-02-01T00:02:45;3.60;99.90
4602;DHT22;2313;48.552;9.370;2023-02-01T00:05:11;3.60;99.90
4602;DHT22;2313;48.552;9.370;2023-02-01T00:07:37;3.50;99.90
4602;DHT22;2313;48.552;9.370;2023-02-01T00:10:04;3.50;99.90
4602;DHT22;2313;48.552;9.370;2023-02-01T00:12:30;3.40;99.90
4602;DHT22;2313;48.552;9.370;2023-02-01T00:14:56;3.40;99.90
4602;DHT22;2313;48.552;9.370;2023-02-01T00:17:22;3.40;99.90
4602;DHT22;2313;48.552;9.370;2023-02-01T00:19:47;3.40;99.90
4602;DHT22;2313;48.552;9.370;2023-02-01T00:22:13;3.40;99.90
4602;DHT22;2313;48.552;9.370;2023-02-01T00:24:39;3.30;99.90
4602;DHT22;2313;48.552;9.370;2023-02-01T00:27:04;3.30;99.90
4602;DHT22;2313;48.552;9.370;2023-02-01T00:29:30;3.30;99.90
4602;DHT22;2313;48.552;9.370;2023-02-01T00:31:56;3.40;99.90
4602;DHT22;2313;48.552;9.370;2023-02-01T00:34:21;3.40;99.90
4602;DHT22;2313;48.552;9.370;2023-02-01T00:36:47;3.50;99.90
4602;DHT22;2313;48.552;9.370;2023-02-01T00:39:13;3.40;99.90
4602;DHT22;2313;48.552;9.370;2023-02-01T00:41:38;3.50;99.90
4602;DHT22;2313;48.552;9.370;2023-02-01T00:44:05;3.50;99.90
4602;DHT22;2313;48.552;9.370;2023-02-01T00:46:31;3.50;99.90
4602;DHT22;2313;48.552;9.370;2023-02-01T00:48:57;3.60;99.90
4602;DHT22;2313;48.552;9.370;2023-02-01T00:51:25;3.60;99.90
4602;DHT22;2313;48.552;9.370;2023-02-01T00:53:51;3.60;99.90
4602;DHT22;2313;48.552;9.370;2023-02-01T00:56:17;3.60;99.90
4602;DHT22;2313;48.552;9.370;2023-02-01T00:58:43;3.60;99.90
4602;DHT22;2313;48.552;9.370;2023-02-01T01:01:25;3.70;99.90
4602;DHT22;2313;48.552;9.370;2023-02-01T01:03:53;3.70;99.90
4602;DHT22;2313;48.552;9.370;2023-02-01T01:06:22;3.70;99.90
4602;DHT22;2313;48.552;9.370;2023-02-01T01:08:49;3.70;99.90
4602;DHT22;2313;48.552;9.370;2023-02-01T01:11:18;3.70;99.90
4602;DHT22;2313;48.552;9.370;2023-02-01T01:13:47;3.60;99.90
4602;DHT22;2313;48.552;9.370;2023-02-01T01:16:13;3.60;99.90
4602;DHT22;2313;48.552;9.370;2023-02-01T01:18:39;3.60;99.90
4602;DHT22;2313;48.552;9.370;2023-02-01T01:21:06;3.60;99.90
4602;DHT22;2313;48.552;9.370;2023-02-01T01:23:32;3.50;99.90
4602;DHT22;2313;48.552;9.370;2023-02-01T01:25:58;3.50;99.90
4602;DHT22;2313;48.552;9.370;2023-02-01T01:28:23;3.60;99.90
4602;DHT22;2313;48.552;9.370;2023-02-01T01:30:49;3.60;99.90
4602;DHT22;2313;48.552;9.370;2023-02-01T01:33:15;3.60;99.90
4602;DHT22;2313;48.552;9.370;2023-02-01T01:35:40;3.60;99.90
4602;DHT22;2313;48.552;9.370;2023-02-01T01:38:06;3.60;99.90
4602;DHT22;2313;48.552;9.370;2023-02-01T01:40:32;3.60;99.90
4602;DHT22;2313;48.552;9.370;2023-02-01T01:42:59;3.60;99.90
4602;DHT22;2313;48.552;9.370;2023-02-01T01:45:33;3.70;99.90
4602;DHT22;2313;48.552;9.370;2023-02-01T01:48:09;3.70;99.90
4602;DHT22;2313;48.552;9.370;2023-02-01T01:50:46;3.70;99.90
4602;DHT22;2313;48.552;9.370;2023-02-01T01:53:27;3.80;99.90
4602;DHT22;2313;48.552;9.370;2023-02-01T01:55:54;3.80;99.90
4602;DHT22;2313;48.552;9.370;2023-02-01T01:58:25;3.80;99.90
4602;DHT22;2313;48.552;9.370;2023-02-01T02:00:52;3.90;99.90
4602;DHT22;2313;48.552;9.370;2023-02-01T02:03:20;3.90;99.90
4602;DHT22;2313;48.552;9.370;2023-02-01T02:05:48;3.90;99.90
4602;DHT22;2313;48.552;9.370;2023-02-01T02:08:14;3.90;99.90
4602;DHT22;2313;48.552;9.370;2023-02-01T02:10:41;4.00;99.90
4602;DHT22;2313;48.552;9.370;2023-02-01T02:13:38;4.00;99.90
4602;DHT22;2313;48.552;9.370;2023-02-01T02:27:08;4.00;99.90
4602;DHT22;2313;48.552;9.370;2023-02-01T02:35:17;4.10;99.90
4602;DHT22;2313;48.552;9.370;2023-02-01T02:40:35;4.10;99.90
4602;DHT22;2313;48.552;9.370;2023-02-01T02:43:08;4.20;99.90
4602;DHT22;2313;48.552;9.370;2023-02-01T02:51:50;4.20;99.90
4602;DHT22;2313;48.552;9.370;2023-02-01T02:54:40;4.20;99.90
4602;DHT22;2313;48.552;9.370;2023-02-01T02:57:26;4.20;99.90
4602;DHT22;2313;48.552;9.370;2023-02-01T03:00:20;4.20;99.90
4602;DHT22;2313;48.552;9.370;2023-02-01T03:03:06;4.30;99.90
4602;DHT22;2313;48.552;9.370;2023-02-01T03:05:51;4.30;99.90
4602;DHT22;2313;48.552;9.370;2023-02-01T03:08:18;4.20;99.90
4602;DHT22;2313;48.552;9.370;2023-02-01T03:21:27;4.10;99.90
4602;DHT22;2313;48.552;9.370;2023-02-01T03:24:00;4.10;99.90
4602;DHT22;2313;48.552;9.370;2023-02-01T03:26:29;4.10;99.90
4602;DHT22;2313;48.552;9.370;2023-02-01T03:29:00;4.10;99.90
4602;DHT22;2313;48.552;9.370;2023-02-01T03:31:28;4.10;99.90
4602;DHT22;2313;48.552;9.370;2023-02-01T03:33:54;4.10;99.90
4602;DHT22;2313;48.552;9.370;2023-02-01T03:36:26;4.10;99.90
4602;DHT22;2313;48.552;9.370;2023-02-01T03:41:25;4.00;99.90
4602;DHT22;2313;48.552;9.370;2023-02-01T03:46:39;4.10;99.90
4602;DHT22;2313;48.552;9.370;2023-02-01T03:49:07;4.00;99.90
4602;DHT22;2313;48.552;9.370;2023-02-01T03:51:36;4.00;99.90
4602;DHT22;2313;48.552;9.370;2023-02-01T03:54:05;4.10;99.90
4602;DHT22;2313;48.552;9.370;2023-02-01T03:56:33;4.00;99.90
4602;DHT22;2313;48.552;9.370;2023-02-01T03:59:01;4.00;99.90
4602;DHT22;2313;48.552;9.370;2023-02-01T04:01:30;4.10;99.90
4602;DHT22;2313;48.552;9.370;2023-02-01T04:03:57;4.10;99.90
4602;DHT22;2313;48.552;9.370;2023-02-01T04:06:24;4.10;99.90
4602;DHT22;2313;48.552;9.370;2023-02-01T04:08:50;4.10;99.90
4602;DHT22;2313;48.552;9.370;2023-02-01T04:11:16;4.10;99.90
4602;DHT22;2313;48.552;9.370;2023-02-01T04:13:43;4.20;99.90
4602;DHT22;2313;48.552;9.370;2023-02-01T04:16:08;4.20;99.90
4602;DHT22;2313;48.552;9.370;2023-02-01T04:18:34;4.20;99.90
4602;DHT22;2313;48.552;9.370;2023-02-01T04:21:00;4.20;99.90
4602;DHT22;2313;48.552;9.370;2023-02-01T04:23:27;4.10;99.90
4602;DHT22;2313;48.552;9.370;2023-02-01T04:25:53;4.20;99.90
4602;DHT22;2313;48.552;9.370;2023-02-01T04:28:19;4.30;99.90
4602;DHT22;2313;48.552;9.370;2023-02-01T04:30:46;4.10;99.90
4602;DHT22;2313;48.552;9.370;2023-02-01T04:33:11;4.10;99.90
4602;DHT22;2313;48.552;9.370;2023-02-01T04:35:39;4.10;99.90
4602;DHT22;2313;48.552;9.370;2023-02-01T04:38:05;4.10;99.90
4602;DHT22;2313;48.552;9.370;2023-02-01T04:40:32;4.10;99.90
4602;DHT22;2313;48.552;9.370;2023-02-01T04:42:58;4.20;99.90
4602;DHT22;2313;48.552;9.370;2023-02-01T04:45:23;4.20;99.90
4602;DHT22;2313;48.552;9.370;2023-02-01T04:47:49;4.20;99.90
4602;DHT22;2313;48.552;9.370;2023-02-01T04:50:15;4.20;99.90
4602;DHT22;2313;48.552;9.370;2023-02-01T04:52:40;4.20;99.90
4602;DHT22;2313;48.552;9.370;2023-02-01T04:55:07;4.20;99.90
4602;DHT22;2313;48.552;9.370;2023-02-01T04:57:32;4.30;99.90
4602;DHT22;2313;48.552;9.370;2023-02-01T04:59:58;4.30;99.90
4602;DHT22;2313;48.552;9.370;2023-02-01T05:02:24;4.20;99.90
4602;DHT22;2313;48.552;9.370;2023-02-01T05:04:49;4.20;99.90
4602;DHT22;2313;48.552;9.370;2023-02-01T05:07:16;4.20;99.90
4602;DHT22;2313;48.552;9.370;2023-02-01T05:09:41;4.20;99.90
4602;DHT22;2313;48.552;9.370;2023-02-01T05:12:09;4.20;99.90
4602;DHT22;2313;48.552;9.370;2023-02-01T05:14:53;4.10;99.90
4602;DHT22;2313;48.552;9.370;2023-02-01T05:17:19;4.10;99.90
4602;DHT22;2313;48.552;9.370;2023-02-01T05:19:45;4.10;99.90
4602;DHT22;2313;48.552;9.370;2023-02-01T05:22:10;4.10;99.90
4602;DHT22;2313;48.552;9.370;2023-02-01T05:24:36;4.20;99.90
4602;DHT22;2313;48.552;9.370;2023-02-01T05:27:01;4.20;99.90
4602;DHT22;2313;48.552;9.370;2023-02-01T05:29:27;4.10;99.90
4602;DHT22;2313;48.552;9.370;2023-02-01T05:31:53;4.20;99.90
4602;DHT22;2313;48.552;9.370;2023-02-01T05:34:18;4.20;99.90
4602;DHT22;2313;48.552;9.370;2023-02-01T05:36:44;4.20;99.90
4602;DHT22;2313;48.552;9.370;2023-02-01T05:39:09;4.20;99.90
4602;DHT22;2313;48.552;9.370;2023-02-01T05:41:35;4.20;99.90
4602;DHT22;2313;48.552;9.370;2023-02-01T05:44:01;4.20;99.90
4602;DHT22;2313;48.552;9.370;2023-02-01T05:46:27;4.20;99.90
4602;DHT22;2313;48.552;9.370;2023-02-01T05:48:52;4.20;99.90
4602;DHT22;2313;48.552;9.370;2023-02-01T05:51:18;4.30;99.90
4602;DHT22;2313;48.552;9.370;2023-02-01T05:53:43;4.30;99.90
4602;DHT22;2313;48.552;9.370;2023-02-01T05:56:09;4.30;99.90
4602;DHT22;2313;48.552;9.370;2023-02-01T05:58:35;4.30;99.90
4602;DHT22;2313;48.552;9.370;2023-02-01T06:01:02;4.40;99.90
4602;DHT22;2313;48.552;9.370;2023-02-01T06:03:28;4.40;99.90
4602;DHT22;2313;48.552;9.370;2023-02-01T06:05:54;4.40;99.90
4602;DHT22;2313;48.552;9.370;2023-02-01T06:08:19;4.40;99.90
4602;DHT22;2313;48.552;9.370;2023-02-01T06:10:45;4.50;99.90
4602;DHT22;2313;48.552;9.370;2023-02-01T06:13:10;4.50;99.90
4602;DHT22;2313;48.552;9.370;2023-02-01T06:15:36;4.50;99.90
4602;DHT22;2313;48.552;9.370;2023-02-01T06:18:03;4.50;99.90
4602;DHT22;2313;48.552;9.370;2023-02-01T06:20:29;4.50;99.90
4602;DHT22;2313;48.552;9.370;2023-02-01T06:22:55;4.50;99.90
4602;DHT22;2313;48.552;9.370;2023-02-01T06:25:21;4.60;99.90
4602;DHT22;2313;48.552;9.370;2023-02-01T06:27:47;4.50;99.90
4602;DHT22;2313;48.552;9.370;2023-02-01T06:30:13;4.60;99.90
4602;DHT22;2313;48.552;9.370;2023-02-01T06:32:39;4.50;99.90
4602;DHT22;2313;48.552;9.370;2023-02-01T06:35:07;4.50;99.90
4602;DHT22;2313;48.552;9.370;2023-02-01T06:37:33;4.50;99.90
4602;DHT22;2313;48.552;9.370;2023-02-01T06:39:59;4.50;99.90
4602;DHT22;2313;48.552;9.370;2023-02-01T06:42:25;4.40;99.90
4602;DHT22;2313;48.552;9.370;2023-02-01T06:44:51;4.40;99.90
4602;DHT22;2313;48.552;9.370;2023-02-01T06:47:16;4.40;99.90
4602;DHT22;2313;48.552;9.370;2023-02-01T06:49:42;4.40;99.90
4602;DHT22;2313;48.552;9.370;2023-02-01T06:52:07;4.40;99.90
4602;DHT22;2313;48.552;9.370;2023-02-01T06:54:33;4.40;99.90
4602;DHT22;2313;48.552;9.370;2023-02-01T06:56:59;4.30;99.90
4602;DHT22;2313;48.552;9.370;2023-02-01T06:59:25;4.20;99.90
4602;DHT22;2313;48.552;9.370;2023-02-01T07:01:50;4.00;99.90
4602;DHT22;2313;48.552;9.370;2023-02-01T07:04:16;4.00;99.90
4602;DHT22;2313;48.552;9.370;2023-02-01T07:06:42;3.90;99.90
4602;DHT22;2313;48.552;9.370;2023-02-01T07:09:08;3.90;99.90
4602;DHT22;2313;48.552;9.370;2023-02-01T07:11:34;3.90;99.90
4602;DHT22;2313;48.552;9.370;2023-02-01T07:13:59;4.00;99.90
4602;DHT22;2313;48.552;9.370;2023-02-01T07:16:25;4.00;99.90
4602;DHT22;2313;48.552;9.370;2023-02-01T07:18:52;4.00;99.90
4602;DHT22;2313;48.552;9.370;2023-02-01T07:21:18;4.00;99.90
4602;DHT22;2313;48.552;9.370;2023-02-01T07:23:44;4.10;99.90
4602;DHT22;2313;48.552;9.370;2023-02-01T07:26:12;4.10;99.90
4602;DHT22;2313;48.552;9.370;2023-02-01T07:28:38;4.20;99.90
4602;DHT22;2313;48.552;9.370;2023-02-01T07:31:09;4.20;99.90
4602;DHT22;2313;48.552;9.370;2023-02-01T07:33:35;4.30;99.90
4602;DHT22;2313;48.552;9.370;2023-02-01T07:36:03;4.30;99.90
4602;DHT22;2313;48.552;9.370;2023-02-01T07:38:29;4.20;99.90
4602;DHT22;2313;48.552;9.370;2023-02-01T07:41:02;4.30;99.90
4602;DHT22;2313;48.552;9.370;2023-02-01T07:43:29;4.30;99.90
4602;DHT22;2313;48.552;9.370;2023-02-01T07:45:55;4.20;99.90
4602;DHT22;2313;48.552;9.370;2023-02-01T07:48:22;4.30;99.90
4602;DHT22;2313;48.552;9.370;2023-02-01T07:50:48;4.30;99.90
4602;DHT22;2313;48.552;9.370;2023-02-01T07:53:14;4.30;99.90
4602;DHT22;2313;48.552;9.370;2023-02-01T07:55:40;4.30;99.90
4602;DHT22;2313;48.552;9.370;2023-02-01T07:58:06;4.40;99.90
4602;DHT22;2313;48.552;9.370;2023-02-01T08:00:32;4.30;99.90
4602;DHT22;2313;48.552;9.370;2023-02-01T08:03:16;4.30;99.90
4602;DHT22;2313;48.552;9.370;2023-02-01T08:05:42;4.30;99.90
4602;DHT22;2313;48.552;9.370;2023-02-01T08:08:07;4.30;99.90
4602;DHT22;2313;48.552;9.370;2023-02-01T08:10:33;4.30;99.90
4602;DHT22;2313;48.552;9.370;2023-02-01T08:13:01;4.30;99.90
4602;DHT22;2313;48.552;9.370;2023-02-01T08:15:28;4.30;99.90
4602;DHT22;2313;48.552;9.370;2023-02-01T08:17:53;4.40;99.90
4602;DHT22;2313;48.552;9.370;2023-02-01T08:20:22;4.40;99.90
4602;DHT22;2313;48.552;9.370;2023-02-01T08:22:49;4.50;99.90
4602;DHT22;2313;48.552;9.370;2023-02-01T08:25:15;4.50;99.90
4602;DHT22;2313;48.552;9.370;2023-02-01T08:27:41;4.50;99.90
4602;DHT22;2313;48.552;9.370;2023-02-01T08:30:07;4.50;99.90
4602;DHT22;2313;48.552;9.370;2023-02-01T08:32:33;4.50;99.90
4602;DHT22;2313;48.552;9.370;2023-02-01T08:34:59;4.50;99.90
4602;DHT22;2313;48.552;9.370;2023-02-01T08:37:25;4.50;99.90
4602;DHT22;2313;48.552;9.370;2023-02-01T08:39:50;4.50;99.90
4602;DHT22;2313;48.552;9.370;2023-02-01T08:42:17;4.50;99.90
4602;DHT22;2313;48.552;9.370;2023-02-01T08:45:01;4.60;99.90
4602;DHT22;2313;48.552;9.370;2023-02-01T08:47:27;4.60;99.90
4602;DHT22;2313;48.552;9.370;2023-02-01T08:49:54;4.60;99.90
4602;DHT22;2313;48.552;9.370;2023-02-01T08:52:19;4.70;99.90
4602;DHT22;2313;48.552;9.370;2023-02-01T08:54:45;4.80;99.90
4602;DHT22;2313;48.552;9.370;2023-02-01T08:57:10;4.90;99.90
4602;DHT22;2313;48.552;9.370;2023-02-01T08:59:36;4.90;99.90
4602;DHT22;2313;48.552;9.370;2023-02-01T09:02:02;5.10;99.90
4602;DHT22;2313;48.552;9.370;2023-02-01T09:04:27;5.20;99.90
4602;DHT22;2313;48.552;9.370;2023-02-01T09:06:53;5.40;99.90
4602;DHT22;2313;48.552;9.370;2023-02-01T09:09:23;5.40;99.90
4602;DHT22;2313;48.552;9.370;2023-02-01T09:11:49;5.40;99.90
4602;DHT22;2313;48.552;9.370;2023-02-01T09:14:16;5.30;99.90
4602;DHT22;2313;48.552;9.370;2023-02-01T09:16:41;5.30;99.90
4602;DHT22;2313;48.552;9.370;2023-02-01T09:19:07;5.10;99.90
4602;DHT22;2313;48.552;9.370;2023-02-01T09:21:33;5.00;99.90
4602;DHT22;2313;48.552;9.370;2023-02-01T09:23:59;5.00;99.90
4602;DHT22;2313;48.552;9.370;2023-02-01T09:26:24;5.00;99.90
4602;DHT22;2313;48.552;9.370;2023-02-01T09:28:51;5.00;99.90
4602;DHT22;2313;48.552;9.370;2023-02-01T09:31:16;4.60;99.90
4602;DHT22;2313;48.552;9.370;2023-02-01T09:33:42;4.80;99.90
4602;DHT22;2313;48.552;9.370;2023-02-01T09:36:08;4.80;99.90
4602;DHT22;2313;48.552;9.370;2023-02-01T09:38:33;4.80;99.90
4602;DHT22;2313;48.552;9.370;2023-02-01T09:40:59;4.80;99.90
4602;DHT22;2313;48.552;9.370;2023-02-01T09:48:39;4.80;99.90
4602;DHT22;2313;48.552;9.370;2023-02-01T09:51:16;4.80;99.90
4602;DHT22;2313;48.552;9.370;2023-02-01T09:53:46;4.80;99.90
4602;DHT22;2313;48.552;9.370;2023-02-01T09:56:24;4.80;99.90
4602;DHT22;2313;48.552;9.370;2023-02-01T09:59:02;4.90;99.90
4602;DHT22;2313;48.552;9.370;2023-02-01T10:01:29;4.90;99.90
4602;DHT22;2313;48.552;9.370;2023-02-01T10:04:05;4.70;99.90
4602;DHT22;2313;48.552;9.370;2023-02-01T10:22:09;4.80;99.90
4602;DHT22;2313;48.552;9.370;2023-02-01T10:24:40;4.80;99.90
4602;DHT22;2313;48.552;9.370;2023-02-01T10:27:12;4.80;99.90
4602;DHT22;2313;48.552;9.370;2023-02-01T10:29:41;4.90;99.90
4602;DHT22;2313;48.552;9.370;2023-02-01T10:32:23;5.00;99.90
4602;DHT22;2313;48.552;9.370;2023-02-01T10:35:00;5.00;99.90
4602;DHT22;2313;48.552;9.370;2023-02-01T10:37:33;4.90;99.90
4602;DHT22;2313;48.552;9.370;2023-02-01T10:40:05;5.00;99.90
4602;DHT22;2313;48.552;9.370;2023-02-01T10:42:36;5.10;99.90
4602;DHT22;2313;48.552;9.370;2023-02-01T10:45:03;5.00;99.90
4602;DHT22;2313;48.552;9.370;2023-02-01T10:47:29;5.10;99.90
4602;DHT22;2313;48.552;9.370;2023-02-01T10:50:04;5.10;99.90
4602;DHT22;2313;48.552;9.370;2023-02-01T10:52:51;5.10;99.90
4602;DHT22;2313;48.552;9.370;2023-02-01T10:58:31;5.10;99.90
4602;DHT22;2313;48.552;9.370;2023-02-01T11:01:07;5.10;99.90
4602;DHT22;2313;48.552;9.370;2023-02-01T11:06:01;5.20;99.90
4602;DHT22;2313;48.552;9.370;2023-02-01T11:08:28;5.20;99.90
4602;DHT22;2313;48.552;9.370;2023-02-01T11:11:00;5.30;99.90
4602;DHT22;2313;48.552;9.370;2023-02-01T11:13:38;5.30;99.90
4602;DHT22;2313;48.552;9.370;2023-02-01T11:16:04;5.30;99.90
4602;DHT22;2313;48.552;9.370;2023-02-01T11:18:35;5.30;99.90
4602;DHT22;2313;48.552;9.370;2023-02-01T11:21:02;5.30;99.90
4602;DHT22;2313;48.552;9.370;2023-02-01T11:23:30;5.30;99.90
4602;DHT22;2313;48.552;9.370;2023-02-01T11:25:59;5.30;99.90
4602;DHT22;2313;48.552;9.370;2023-02-01T11:28:31;5.20;99.90
4602;DHT22;2313;48.552;9.370;2023-02-01T11:31:02;5.20;99.90
4602;DHT22;2313;48.552;9.370;2023-02-01T11:33:34;5.20;99.90
4602;DHT22;2313;48.552;9.370;2023-02-01T11:36:14;5.20;99.90
4602;DHT22;2313;48.552;9.370;2023-02-01T11:39:07;5.20;99.90
4602;DHT22;2313;48.552;9.370;2023-02-01T11:41:31;5.30;99.90
4602;DHT22;2313;48.552;9.370;2023-02-01T11:44:00;5.20;99.90
4602;DHT22;2313;48.552;9.370;2023-02-01T11:46:32;5.20;99.90
4602;DHT22;2313;48.552;9.370;2023-02-01T11:49:23;5.20;99.90
4602;DHT22;2313;48.552;9.370;2023-02-01T11:54:28;5.30;99.90
4602;DHT22;2313;48.552;9.370;2023-02-01T11:57:27;5.30;99.90
4602;DHT22;2313;48.552;9.370;2023-02-01T12:05:53;5.30;99.90
4602;DHT22;2313;48.552;9.370;2023-02-01T12:13:47;5.40;99.90
4602;DHT22;2313;48.552;9.370;2023-02-01T12:16:26;5.30;99.90
4602;DHT22;2313;48.552;9.370;2023-02-01T12:19:18;5.40;99.90
4602;DHT22;2313;48.552;9.370;2023-02-01T12:33:22;5.30;99.90
4602;DHT22;2313;48.552;9.370;2023-02-01T12:43:46;5.30;99.90
4602;DHT22;2313;48.552;9.370;2023-02-01T12:49:08;5.30;99.90
4602;DHT22;2313;48.552;9.370;2023-02-01T12:51:38;5.30;99.90
4602;DHT22;2313;48.552;9.370;2023-02-01T12:56:47;5.40;99.90
4602;DHT22;2313;48.552;9.370;2023-02-01T12:59:36;5.30;99.90
4602;DHT22;2313;48.552;9.370;2023-02-01T13:05:05;5.20;99.90
4602;DHT22;2313;48.552;9.370;2023-02-01T13:13:11;5.20;99.90
4602;DHT22;2313;48.552;9.370;2023-02-01T13:15:46;5.20;99.90
4602;DHT22;2313;48.552;9.370;2023-02-01T13:18:20;5.30;99.90
4602;DHT22;2313;48.552;9.370;2023-02-01T13:20:56;5.30;99.90
4602;DHT22;2313;48.552;9.370;2023-02-01T13:23:30;5.30;99.90
4602;DHT22;2313;48.552;9.370;2023-02-01T13:25:56;5.20;99.90
4602;DHT22;2313;48.552;9.370;2023-02-01T13:28:28;5.30;99.90
4602;DHT22;2313;48.552;9.370;2023-02-01T13:39:19;5.20;99.90
4602;DHT22;2313;48.552;9.370;2023-02-01T13:42:02;5.20;99.90
4602;DHT22;2313;48.552;9.370;2023-02-01T13:44:36;5.10;99.90
4602;DHT22;2313;48.552;9.370;2023-02-01T13:47:22;5.20;99.90
4602;DHT22;2313;48.552;9.370;2023-02-01T13:49:48;5.10;99.90
4602;DHT22;2313;48.552;9.370;2023-02-01T13:52:38;5.20;99.90
4602;DHT22;2313;48.552;9.370;2023-02-01T13:57:47;5.10;99.90
4602;DHT22;2313;48.552;9.370;2023-02-01T14:00:28;5.10;99.90
4602;DHT22;2313;48.552;9.370;2023-02-01T14:10:52;4.90;99.90
4602;DHT22;2313;48.552;9.370;2023-02-01T14:13:35;4.90;99.90
4602;DHT22;2313;48.552;9.370;2023-02-01T14:21:19;4.90;99.90
4602;DHT22;2313;48.552;9.370;2023-02-01T14:26:25;4.90;99.90
4602;DHT22;2313;48.552;9.370;2023-02-01T14:44:48;5.00;99.90
4602;DHT22;2313;48.552;9.370;2023-02-01T14:50:02;4.90;99.90
4602;DHT22;2313;48.552;9.370;2023-02-01T14:52:34;5.00;99.90
4602;DHT22;2313;48.552;9.370;2023-02-01T14:55:05;5.00;99.90
4602;DHT22;2313;48.552;9.370;2023-02-01T14:57:37;4.90;99.90
4602;DHT22;2313;48.552;9.370;2023-02-01T15:00:29;4.80;99.90
4602;DHT22;2313;48.552;9.370;2023-02-01T15:03:00;4.80;99.90
4602;DHT22;2313;48.552;9.370;2023-02-01T15:05:37;4.80;99.90
4602;DHT22;2313;48.552;9.370;2023-02-01T15:08:09;4.80;99.90
4602;DHT22;2313;48.552;9.370;2023-02-01T15:10:43;4.90;99.90
4602;DHT22;2313;48.552;9.370;2023-02-01T15:13:28;4.90;99.90
4602;DHT22;2313;48.552;9.370;2023-02-01T15:16:11;4.90;99.90
4602;DHT22;2313;48.552;9.370;2023-02-01T15:18:37;4.90;99.90
4602;DHT22;2313;48.552;9.370;2023-02-01T15:21:04;4.90;99.90
4602;DHT22;2313;48.552;9.370;2023-02-01T15:23:31;4.90;99.90
4602;DHT22;2313;48.552;9.370;2023-02-01T15:25:57;4.90;99.90
4602;DHT22;2313;48.552;9.370;2023-02-01T15:28:23;5.00;99.90
4602;DHT22;2313;48.552;9.370;2023-02-01T15:30:59;5.00;99.90
4602;DHT22;2313;48.552;9.370;2023-02-01T15:33:26;5.00;99.90
4602;DHT22;2313;48.552;9.370;2023-02-01T15:35:54;5.00;99.90
4602;DHT22;2313;48.552;9.370;2023-02-01T15:43:44;4.90;99.90
4602;DHT22;2313;48.552;9.370;2023-02-01T15:46:15;4.90;99.90
4602;DHT22;2313;48.552;9.370;2023-02-01T15:48:53;4.90;99.90
4602;DHT22;2313;48.552;9.370;2023-02-01T15:51:22;4.90;99.90
4602;DHT22;2313;48.552;9.370;2023-02-01T15:53:52;4.90;99.90
4602;DHT22;2313;48.552;9.370;2023-02-01T15:56:35;4.90;99.90
4602;DHT22;2313;48.552;9.370;2023-02-01T15:59:02;4.80;99.90
4602;DHT22;2313;48.552;9.370;2023-02-01T16:01:29;4.80;99.90
4602;DHT22;2313;48.552;9.370;2023-02-01T16:04:25;4.80;99.90
4602;DHT22;2313;48.552;9.370;2023-02-01T16:06:54;4.80;99.90
4602;DHT22;2313;48.552;9.370;2023-02-01T16:09:23;4.80;99.90
4602;DHT22;2313;48.552;9.370;2023-02-01T16:11:57;4.80;99.90
4602;DHT22;2313;48.552;9.370;2023-02-01T16:14:23;4.80;99.90
4602;DHT22;2313;48.552;9.370;2023-02-01T16:16:50;4.80;99.90
4602;DHT22;2313;48.552;9.370;2023-02-01T16:19:15;4.80;99.90
4602;DHT22;2313;48.552;9.370;2023-02-01T16:21:41;4.80;99.90
4602;DHT22;2313;48.552;9.370;2023-02-01T16:24:06;4.80;99.90
4602;DHT22;2313;48.552;9.370;2023-02-01T16:26:33;4.80;99.90
4602;DHT22;2313;48.552;9.370;2023-02-01T16:28:59;4.70;99.90
4602;DHT22;2313;48.552;9.370;2023-02-01T16:31:30;4.80;99.90
4602;DHT22;2313;48.552;9.370;2023-02-01T16:33:56;4.80;99.90
4602;DHT22;2313;48.552;9.370;2023-02-01T16:36:22;4.80;99.90
4602;DHT22;2313;48.552;9.370;2023-02-01T16:38:49;4.80;99.90
4602;DHT22;2313;48.552;9.370;2023-02-01T16:41:17;4.80;99.90
4602;DHT22;2313;48.552;9.370;2023-02-01T16:43:43;4.80;99.90
4602;DHT22;2313;48.552;9.370;2023-02-01T16:46:14;4.80;99.90
4602;DHT22;2313;48.552;9.370;2023-02-01T16:48:42;4.80;99.90
4602;DHT22;2313;48.552;9.370;2023-02-01T16:51:13;4.80;99.90
4602;DHT22;2313;48.552;9.370;2023-02-01T16:53:39;4.80;99.90
4602;DHT22;2313;48.552;9.370;2023-02-01T16:56:14;4.80;99.90
4602;DHT22;2313;48.552;9.370;2023-02-01T16:58:40;4.80;99.90
4602;DHT22;2313;48.552;9.370;2023-02-01T17:01:11;4.80;99.90
4602;DHT22;2313;48.552;9.370;2023-02-01T17:03:38;4.80;99.90
4602;DHT22;2313;48.552;9.370;2023-02-01T17:06:04;4.80;99.90
4602;DHT22;2313;48.552;9.370;2023-02-01T17:08:40;4.80;99.90
4602;DHT22;2313;48.552;9.370;2023-02-01T17:11:06;4.80;99.90
4602;DHT22;2313;48.552;9.370;2023-02-01T17:13:33;4.80;99.90
4602;DHT22;2313;48.552;9.370;2023-02-01T17:16:04;4.80;99.90
4602;DHT22;2313;48.552;9.370;2023-02-01T17:18:34;4.80;99.90
4602;DHT22;2313;48.552;9.370;2023-02-01T17:21:00;4.80;99.90
4602;DHT22;2313;48.552;9.370;2023-02-01T17:23:28;4.80;99.90
4602;DHT22;2313;48.552;9.370;2023-02-01T17:25:54;4.80;99.90
4602;DHT22;2313;48.552;9.370;2023-02-01T17:28:19;4.80;99.90
4602;DHT22;2313;48.552;9.370;2023-02-01T17:30:45;4.80;99.90
4602;DHT22;2313;48.552;9.370;2023-02-01T17:33:31;4.80;99.90
4602;DHT22;2313;48.552;9.370;2023-02-01T17:35:57;4.80;99.90
4602;DHT22;2313;48.552;9.370;2023-02-01T17:38:24;4.80;99.90
4602;DHT22;2313;48.552;9.370;2023-02-01T17:40:50;4.70;99.90
4602;DHT22;2313;48.552;9.370;2023-02-01T17:43:20;4.70;99.90
4602;DHT22;2313;48.552;9.370;2023-02-01T17:45:51;4.80;99.90
4602;DHT22;2313;48.552;9.370;2023-02-01T17:48:21;4.80;99.90
4602;DHT22;2313;48.552;9.370;2023-02-01T17:50:48;4.80;99.90
4602;DHT22;2313;48.552;9.370;2023-02-01T17:53:16;4.80;99.90
4602;DHT22;2313;48.552;9.370;2023-02-01T17:55:45;4.70;99.90
4602;DHT22;2313;48.552;9.370;2023-02-01T17:58:13;4.70;99.90
4602;DHT22;2313;48.552;9.370;2023-02-01T18:00:40;4.70;99.90
4602;DHT22;2313;48.552;9.370;2023-02-01T18:03:06;4.70;99.90
4602;DHT22;2313;48.552;9.370;2023-02-01T18:05:41;4.70;99.90
4602;DHT22;2313;48.552;9.370;2023-02-01T18:08:08;4.70;99.90
4602;DHT22;2313;48.552;9.370;2023-02-01T18:10:34;4.80;99.90
4602;DHT22;2313;48.552;9.370;2023-02-01T18:13:01;4.80;99.90
4602;DHT22;2313;48.552;9.370;2023-02-01T18:15:29;4.80;99.90
4602;DHT22;2313;48.552;9.370;2023-02-01T18:17:55;4.80;99.90
4602;DHT22;2313;48.552;9.370;2023-02-01T18:20:25;4.70;99.90
4602;DHT22;2313;48.552;9.370;2023-02-01T18:22:51;4.70;99.90
4602;DHT22;2313;48.552;9.370;2023-02-01T18:25:20;4.60;99.90
4602;DHT22;2313;48.552;9.370;2023-02-01T18:27:48;4.60;99.90
4602;DHT22;2313;48.552;9.370;2023-02-01T18:30:15;4.60;99.90
4602;DHT22;2313;48.552;9.370;2023-02-01T18:32:41;4.70;99.90
4602;DHT22;2313;48.552;9.370;2023-02-01T18:35:25;4.70;99.90
4602;DHT22;2313;48.552;9.370;2023-02-01T18:37:51;4.70;99.90
4602;DHT22;2313;48.552;9.370;2023-02-01T18:40:30;4.70;99.90
4602;DHT22;2313;48.552;9.370;2023-02-01T18:42:57;4.70;99.90
4602;DHT22;2313;48.552;9.370;2023-02-01T18:45:37;4.60;99.90
4602;DHT22;2313;48.552;9.370;2023-02-01T18:48:05;4.70;99.90
4602;DHT22;2313;48.552;9.370;2023-02-01T18:50:33;4.60;99.90
4602;DHT22;2313;48.552;9.370;2023-02-01T18:53:00;4.60;99.90
4602;DHT22;2313;48.552;9.370;2023-02-01T18:55:27;4.60;99.90
4602;DHT22;2313;48.552;9.370;2023-02-01T18:57:53;4.60;99.90
4602;DHT22;2313;48.552;9.370;2023-02-01T19:00:20;4.50;99.90
4602;DHT22;2313;48.552;9.370;2023-02-01T19:02:46;4.60;99.90
4602;DHT22;2313;48.552;9.370;2023-02-01T19:05:13;4.60;99.90
4602;DHT22;2313;48.552;9.370;2023-02-01T19:07:40;4.70;99.90
4602;DHT22;2313;48.552;9.370;2023-02-01T19:10:10;4.60;99.90
4602;DHT22;2313;48.552;9.370;2023-02-01T19:12:36;4.60;99.90
4602;DHT22;2313;48.552;9.370;2023-02-01T19:15:04;4.60;99.90